createdAt,value
2022-12-11T00:01:12.269Z,97650.84
2022-12-11T00:03:40.625Z,97620.72
2022-12-11T00:06:09.809Z,97658.56
2022-12-11T00:08:38.586Z,97617.25
2022-12-11T00:11:09.107Z,97593.31
2022-12-11T00:13:37.153Z,97580.97
2022-12-11T00:16:07.118Z,97564.38
2022-12-11T00:18:35.382Z,97543.13
2022-12-11T00:21:03.995Z,97554.72
2022-12-11T00:23:32.083Z,97540.06
2022-12-11T00:26:00.225Z,97530.00
2022-12-11T00:28:28.402Z,97529.63
2022-12-11T00:30:56.474Z,97542.75
2022-12-11T00:33:28.365Z,97562.81
2022-12-11T00:35:56.433Z,97560.13
2022-12-11T00:38:24.582Z,97535.38
2022-12-11T00:40:53.151Z,97567.81
2022-12-11T00:43:21.197Z,97560.09
2022-12-11T00:45:49.380Z,97566.69
2022-12-11T00:48:17.869Z,97576.72
2022-12-11T00:50:47.889Z,97555.03
2022-12-11T00:53:16.432Z,97581.31
2022-12-11T00:55:44.983Z,97565.47
2022-12-11T00:58:14.251Z,97530.66
2022-12-11T01:00:44.246Z,97539.91
2022-12-11T01:03:15.466Z,97539.13
2022-12-11T01:05:43.882Z,97521.72
2022-12-11T01:08:13.425Z,97509.69
2022-12-11T01:10:40.447Z,97474.56
2022-12-11T01:13:08.572Z,97474.19
2022-12-11T01:15:42.033Z,97503.47
2022-12-11T01:18:10.245Z,97498.81
2022-12-11T01:20:40.125Z,97506.16
2022-12-11T01:23:08.524Z,97511.09
2022-12-11T01:25:39.286Z,97504.81
2022-12-11T01:28:07.575Z,97503.81
2022-12-11T01:30:36.015Z,97490.69
2022-12-11T01:33:04.319Z,97490.22
2022-12-11T01:35:33.369Z,97486.47
2022-12-11T01:38:01.533Z,97498.09
2022-12-11T01:40:29.872Z,97483.78
2022-12-11T01:42:59.323Z,97462.25
2022-12-11T01:45:34.817Z,97459.44
2022-12-11T01:48:07.773Z,97418.16
2022-12-11T01:50:39.832Z,97384.56
2022-12-11T01:53:11.740Z,97339.84
2022-12-11T01:55:41.492Z,97358.06
2022-12-11T01:58:13.088Z,97364.56
2022-12-11T02:00:41.502Z,97360.28
2022-12-11T02:03:10.952Z,97360.78
2022-12-11T02:05:39.665Z,97356.97
2022-12-11T02:08:09.182Z,97384.28
2022-12-11T02:11:02.724Z,97371.91
2022-12-11T02:13:40.601Z,97358.41
2022-12-11T02:16:17.158Z,97379.69
2022-12-11T02:18:53.428Z,97366.53
2022-12-11T02:21:26.787Z,97372.25
2022-12-11T02:24:26.637Z,97385.44
2022-12-11T02:27:25.049Z,97373.00
2022-12-11T02:30:03.203Z,97367.34
2022-12-11T02:32:36.666Z,97363.06
2022-12-11T02:35:10.842Z,97359.94
2022-12-11T02:37:42.624Z,97383.09
2022-12-11T02:40:13.971Z,97361.31
2022-12-11T02:42:44.771Z,97350.56
2022-12-11T02:45:16.024Z,97345.25
2022-12-11T02:47:48.554Z,97349.00
2022-12-11T02:50:21.270Z,97333.91
2022-12-11T02:52:55.900Z,97343.97
2022-12-11T02:55:27.273Z,97335.38
2022-12-11T02:58:03.572Z,97334.75
2022-12-11T03:00:33.509Z,97344.69
2022-12-11T03:03:01.728Z,97342.34
2022-12-11T03:05:31.067Z,97345.47
2022-12-11T03:07:59.254Z,97360.84
2022-12-11T03:10:27.434Z,97356.22
2022-12-11T03:12:59.278Z,97347.03
2022-12-11T03:15:35.309Z,97341.31
2022-12-11T03:18:10.143Z,97369.50
2022-12-11T03:20:42.469Z,97356.22
2022-12-11T03:23:19.675Z,97356.25
2022-12-11T03:25:54.807Z,97372.38
2022-12-11T03:28:30.988Z,97380.03
2022-12-11T03:31:06.774Z,97393.78
2022-12-11T03:33:39.021Z,97389.28
2022-12-11T03:36:12.033Z,97383.88
2022-12-11T03:38:45.428Z,97378.84
2022-12-11T03:41:16.077Z,97370.81
2022-12-11T03:43:44.629Z,97390.69
2022-12-11T03:46:17.397Z,97399.19
2022-12-11T03:48:48.204Z,97389.16
2022-12-11T03:51:18.311Z,97387.53
2022-12-11T03:53:48.409Z,97359.81
2022-12-11T03:56:18.879Z,97379.91
2022-12-11T03:58:46.952Z,97365.19
2022-12-11T04:01:16.956Z,97381.06
2022-12-11T04:03:45.039Z,97374.47
2022-12-11T04:06:13.050Z,97368.75
2022-12-11T04:08:41.068Z,97378.97
2022-12-11T04:11:26.379Z,97385.88
2022-12-11T04:14:08.193Z,97377.00
2022-12-11T04:16:37.665Z,97378.09
2022-12-11T04:19:24.039Z,97374.28
2022-12-11T04:22:09.324Z,97379.75
2022-12-11T04:24:37.365Z,97374.69
2022-12-11T04:27:05.994Z,97381.59
2022-12-11T04:29:34.179Z,97374.22
2022-12-11T04:32:03.661Z,97372.28
2022-12-11T04:34:31.743Z,97377.69
2022-12-11T04:36:59.737Z,97377.53
2022-12-11T04:39:27.752Z,97383.75
2022-12-11T04:41:55.866Z,97387.22
2022-12-11T04:44:23.884Z,97376.88
2022-12-11T04:46:51.963Z,97375.34
2022-12-11T04:49:21.374Z,97383.69
2022-12-11T04:51:49.538Z,97399.84
2022-12-11T04:54:18.026Z,97390.47
2022-12-11T04:56:46.034Z,97399.53
2022-12-11T04:59:14.255Z,97408.09
2022-12-11T05:01:42.661Z,97407.34
2022-12-11T05:04:10.732Z,97412.75
2022-12-11T05:06:40.219Z,97412.56
2022-12-11T05:09:11.780Z,97416.59
2022-12-11T05:11:40.107Z,97407.47
2022-12-11T05:14:08.243Z,97410.63
2022-12-11T05:16:36.866Z,97411.06
2022-12-11T05:19:04.936Z,97412.75
2022-12-11T05:21:35.217Z,97410.47
2022-12-11T05:24:05.324Z,97422.09
2022-12-11T05:26:33.372Z,97425.63
2022-12-11T05:29:01.507Z,97407.09
2022-12-11T05:31:29.707Z,97414.47
2022-12-11T05:33:57.837Z,97418.31
2022-12-11T05:36:28.429Z,97432.25
2022-12-11T05:38:57.213Z,97464.28
2022-12-11T05:41:28.702Z,97449.25
2022-12-11T05:43:57.425Z,97452.38
2022-12-11T05:46:26.911Z,97452.75
2022-12-11T05:48:57.398Z,97438.44
2022-12-11T05:51:26.130Z,97438.47
2022-12-11T05:53:57.064Z,97454.72
2022-12-11T05:56:28.693Z,97446.22
2022-12-11T05:58:57.546Z,97462.44
2022-12-11T06:01:27.669Z,97471.31
2022-12-11T06:03:57.448Z,97480.16
2022-12-11T06:06:26.021Z,97491.44
2022-12-11T06:08:55.439Z,97497.25
2022-12-11T06:11:24.610Z,97510.34
2022-12-11T06:13:54.317Z,97528.94
2022-12-11T06:16:23.228Z,97531.22
2022-12-11T06:18:53.673Z,97522.72
2022-12-11T06:21:25.673Z,97525.06
2022-12-11T06:23:55.808Z,97523.84
2022-12-11T06:26:24.126Z,97521.94
2022-12-11T06:28:53.714Z,97525.03
2022-12-11T06:31:22.629Z,97530.78
2022-12-11T06:33:50.893Z,97538.91
2022-12-11T06:36:21.787Z,97522.66
2022-12-11T06:38:50.289Z,97528.06
2022-12-11T06:41:18.530Z,97518.75
2022-12-11T06:43:46.685Z,97520.66
2022-12-11T06:46:18.749Z,97522.50
2022-12-11T06:48:47.645Z,97519.03
2022-12-11T06:51:16.862Z,97518.66
2022-12-11T06:53:45.534Z,97520.16
2022-12-11T06:56:16.227Z,97529.41
2022-12-11T06:58:45.403Z,97538.66
2022-12-11T07:01:20.673Z,97529.56
2022-12-11T07:03:49.058Z,97539.22
2022-12-11T07:06:18.693Z,97541.84
2022-12-11T07:08:48.737Z,97548.41
2022-12-11T07:11:19.165Z,97557.28
2022-12-11T07:13:47.838Z,97552.69
2022-12-11T07:16:19.672Z,97566.63
2022-12-11T07:18:49.656Z,97558.06
2022-12-11T07:21:18.346Z,97553.78
2022-12-11T07:23:46.837Z,97549.06
2022-12-11T07:26:17.347Z,97549.38
2022-12-11T07:28:46.079Z,97555.75
2022-12-11T07:31:16.078Z,97551.00
2022-12-11T07:33:45.993Z,97545.53
2022-12-11T07:36:16.171Z,97545.97
2022-12-11T07:38:44.141Z,97545.53
2022-12-11T07:41:17.740Z,97554.06
2022-12-11T07:43:46.320Z,97560.22
2022-12-11T07:46:16.821Z,97553.19
2022-12-11T07:48:48.234Z,97560.72
2022-12-11T07:51:18.054Z,97557.88
2022-12-11T07:53:47.832Z,97558.25
2022-12-11T07:56:19.183Z,97558.63
2022-12-11T07:58:48.194Z,97547.31
2022-12-11T08:01:18.577Z,97558.41
2022-12-11T08:03:48.647Z,97550.13
2022-12-11T08:06:16.740Z,97554.28
2022-12-11T08:08:45.483Z,97555.28
2022-12-11T08:11:15.962Z,97566.44
2022-12-11T08:13:45.763Z,97576.09
2022-12-11T08:16:15.909Z,97588.06
2022-12-11T08:18:45.059Z,97595.94
2022-12-11T08:21:16.803Z,97594.16
2022-12-11T08:23:45.180Z,97588.13
2022-12-11T08:26:16.365Z,97577.69
2022-12-11T08:28:44.813Z,97573.75
2022-12-11T08:31:15.004Z,97573.59
2022-12-11T08:33:45.590Z,97558.53
2022-12-11T08:36:17.628Z,97556.91
2022-12-11T08:38:46.734Z,97556.19
2022-12-11T08:41:16.660Z,97547.63
2022-12-11T08:43:45.062Z,97550.75
2022-12-11T08:46:14.101Z,97553.38
2022-12-11T08:48:44.764Z,97554.78
2022-12-11T08:51:17.238Z,97547.53
2022-12-11T08:53:45.692Z,97563.94
2022-12-11T08:56:16.241Z,97578.09
2022-12-11T08:58:45.895Z,97593.38
2022-12-11T09:01:16.079Z,97599.50
2022-12-11T09:03:44.226Z,97612.59
2022-12-11T09:06:14.518Z,97606.47
2022-12-11T09:08:50.388Z,97600.78
2022-12-11T09:11:22.933Z,97602.91
2022-12-11T09:13:51.452Z,97603.34
2022-12-11T09:16:23.330Z,97599.00
2022-12-11T09:18:53.695Z,97595.25
2022-12-11T09:21:25.218Z,97584.81
2022-12-11T09:23:57.815Z,97586.28
2022-12-11T09:26:26.785Z,97577.69
2022-12-11T09:28:55.673Z,97555.50
2022-12-11T09:31:26.297Z,97557.81
2022-12-11T09:33:56.737Z,97548.78
2022-12-11T09:36:25.569Z,97547.47
2022-12-11T09:38:55.509Z,97529.94
2022-12-11T09:41:37.917Z,97530.50
2022-12-11T09:44:20.752Z,97541.59
2022-12-11T09:46:50.313Z,97522.00
2022-12-11T09:49:27.504Z,97523.09
2022-12-11T09:52:05.611Z,97521.41
2022-12-11T09:54:35.879Z,97506.09
2022-12-11T09:57:15.295Z,97504.13
2022-12-11T09:59:53.204Z,97508.75
2022-12-11T10:02:31.819Z,97521.94
2022-12-11T10:05:14.048Z,97544.13
2022-12-11T10:07:49.964Z,97523.72
2022-12-11T10:10:33.649Z,97518.97
2022-12-11T10:13:08.332Z,97525.91
2022-12-11T10:15:41.590Z,97516.59
2022-12-11T10:18:17.350Z,97507.34
2022-12-11T10:20:45.820Z,97503.59
2022-12-11T10:23:20.399Z,97504.59
2022-12-11T10:25:55.187Z,97499.47
2022-12-11T10:28:23.424Z,97489.50
2022-12-11T10:31:00.213Z,97471.84
2022-12-11T10:33:37.541Z,97458.41
2022-12-11T10:36:09.045Z,97460.41
2022-12-11T10:38:42.400Z,97456.53
2022-12-11T10:41:17.638Z,97454.13
2022-12-11T10:43:48.209Z,97444.91
2022-12-11T10:46:18.877Z,97436.69
2022-12-11T10:48:48.239Z,97438.28
2022-12-11T10:51:16.868Z,97432.47
2022-12-11T10:53:45.527Z,97434.94
2022-12-11T10:56:15.158Z,97433.09
2022-12-11T10:58:51.703Z,97432.50
2022-12-11T11:01:23.587Z,97426.56
2022-12-11T11:04:01.730Z,97425.75
2022-12-11T11:06:30.085Z,97429.72
2022-12-11T11:08:59.824Z,97424.34
2022-12-11T11:11:34.008Z,97429.78
2022-12-11T11:14:15.741Z,97427.47
2022-12-11T11:16:46.111Z,97441.75
2022-12-11T11:19:24.710Z,97431.94
2022-12-11T11:21:55.234Z,97431.63
2022-12-11T11:24:29.910Z,97434.13
2022-12-11T11:27:14.960Z,97435.63
2022-12-11T11:29:46.685Z,97442.44
2022-12-11T11:32:20.982Z,97429.38
2022-12-11T11:34:49.151Z,97432.69
2022-12-11T11:37:32.446Z,97436.63
2022-12-11T11:40:12.873Z,97418.47
2022-12-11T11:42:50.698Z,97423.03
2022-12-11T11:45:23.647Z,97426.63
2022-12-11T11:47:59.856Z,97425.78
2022-12-11T11:50:34.548Z,97418.44
2022-12-11T11:53:10.920Z,97424.06
2022-12-11T11:55:51.958Z,97420.22
2022-12-11T11:58:25.518Z,97420.09
2022-12-11T12:00:55.164Z,97428.81
2022-12-11T12:03:27.564Z,97419.19
2022-12-11T12:05:59.486Z,97419.06
2022-12-11T12:08:42.884Z,97408.88
2022-12-11T12:11:20.270Z,97405.56
2022-12-11T12:14:00.139Z,97407.91
2022-12-11T12:16:52.723Z,97398.88
2022-12-11T12:19:38.442Z,97391.00
2022-12-11T12:22:15.222Z,97397.28
2022-12-11T12:24:56.450Z,97381.56
2022-12-11T12:30:24.357Z,97380.56
2022-12-11T12:33:17.380Z,97378.91
2022-12-11T12:35:54.562Z,97385.66
2022-12-11T12:38:31.691Z,97389.16
2022-12-11T12:41:14.372Z,97382.88
2022-12-11T12:43:58.669Z,97385.53
2022-12-11T12:46:42.519Z,97394.94
2022-12-11T12:49:15.400Z,97395.03
2022-12-11T12:51:44.777Z,97388.63
2022-12-11T12:54:17.747Z,97378.13
2022-12-11T12:56:47.622Z,97380.69
2022-12-11T12:59:23.957Z,97383.44
2022-12-11T13:01:57.308Z,97387.97
2022-12-11T13:04:59.449Z,97383.66
2022-12-11T13:07:30.927Z,97381.81
2022-12-11T13:10:07.103Z,97390.56
2022-12-11T13:12:42.821Z,97392.50
2022-12-11T13:15:35.931Z,97388.00
2022-12-11T13:18:27.296Z,97384.47
2022-12-11T13:20:56.862Z,97384.00
2022-12-11T13:23:30.211Z,97380.38
2022-12-11T13:26:00.365Z,97384.84
2022-12-11T13:28:34.532Z,97381.25
2022-12-11T13:31:25.029Z,97380.63
2022-12-11T13:33:56.431Z,97378.34
2022-12-11T13:36:37.875Z,97377.06
2022-12-11T13:39:11.189Z,97392.63
2022-12-11T13:41:40.191Z,97396.47
2022-12-11T13:44:09.585Z,97394.38
2022-12-11T13:46:41.059Z,97402.81
2022-12-11T13:49:19.965Z,97410.94
2022-12-11T13:51:56.686Z,97410.75
2022-12-11T13:54:26.503Z,97416.38
2022-12-11T13:57:00.670Z,97413.53
2022-12-11T13:59:32.363Z,97402.28
2022-12-11T14:02:05.348Z,97398.25
2022-12-11T14:04:35.730Z,97418.34
2022-12-11T14:07:09.914Z,97419.22
2022-12-11T14:09:41.295Z,97429.13
2022-12-11T14:12:17.848Z,97435.59
2022-12-11T14:14:51.475Z,97448.09
2022-12-11T14:17:25.901Z,97446.59
2022-12-11T14:19:55.556Z,97453.47
2022-12-11T14:22:26.747Z,97441.66
2022-12-11T14:24:56.877Z,97442.66
2022-12-11T14:27:26.489Z,97450.34
2022-12-11T14:29:55.000Z,97456.16
2022-12-11T14:32:31.723Z,97454.50
2022-12-11T14:35:02.220Z,97449.59
2022-12-11T14:37:33.167Z,97447.88
2022-12-11T14:40:04.507Z,97455.97
2022-12-11T14:42:40.148Z,97466.78
2022-12-11T14:45:18.259Z,97468.34
2022-12-11T14:47:46.740Z,97478.47
2022-12-11T14:50:20.987Z,97480.03
2022-12-11T14:52:54.838Z,97482.56
2022-12-11T14:55:27.627Z,97487.84
2022-12-11T14:57:59.075Z,97497.13
2022-12-11T15:00:30.613Z,97494.94
2022-12-11T15:03:00.945Z,97494.81
2022-12-11T15:05:38.845Z,97489.81
2022-12-11T15:08:25.027Z,97476.94
2022-12-11T15:11:08.329Z,97473.47
2022-12-11T15:13:38.598Z,97460.34
2022-12-11T15:16:10.321Z,97461.38
2022-12-11T15:18:41.871Z,97455.91
2022-12-11T15:21:12.876Z,97449.59
2022-12-11T15:23:52.605Z,97454.50
2022-12-11T15:26:21.933Z,97465.31
2022-12-11T15:29:01.437Z,97473.75
2022-12-11T15:31:31.499Z,97476.94
2022-12-11T15:34:00.699Z,97468.84
2022-12-11T15:36:36.845Z,97471.25
2022-12-11T15:39:08.743Z,97484.78
2022-12-11T15:41:37.153Z,97497.38
2022-12-11T15:44:05.907Z,97499.22
2022-12-11T15:46:37.412Z,97500.44
2022-12-11T15:49:12.695Z,97499.13
2022-12-11T15:51:43.203Z,97495.31
2022-12-11T15:54:13.311Z,97498.25
2022-12-11T15:56:41.468Z,97494.31
2022-12-11T15:59:11.202Z,97496.63
2022-12-11T16:01:39.324Z,97488.41
2022-12-11T16:04:10.471Z,97483.50
2022-12-11T16:06:45.192Z,97482.63
2022-12-11T16:09:14.752Z,97487.38
2022-12-11T16:11:43.044Z,97480.31
2022-12-11T16:14:11.161Z,97471.81
2022-12-11T16:16:39.811Z,97482.75
2022-12-11T16:19:08.034Z,97478.69
2022-12-11T16:21:36.282Z,97477.81
2022-12-11T16:24:04.564Z,97469.50
2022-12-11T16:26:34.459Z,97474.19
2022-12-11T16:29:02.634Z,97472.00
2022-12-11T16:31:31.122Z,97467.53
2022-12-11T16:33:59.178Z,97469.72
2022-12-11T16:36:27.348Z,97463.28
2022-12-11T16:38:55.480Z,97458.34
2022-12-11T16:41:23.939Z,97467.84
2022-12-11T16:43:54.989Z,97480.72
2022-12-11T16:46:24.449Z,97494.78
2022-12-11T16:48:52.593Z,97491.59
2022-12-11T16:51:20.804Z,97508.97
2022-12-11T16:53:50.010Z,97510.06
2022-12-11T16:56:18.078Z,97515.53
2022-12-11T16:58:47.892Z,97507.34
2022-12-11T17:01:17.885Z,97521.47
2022-12-11T17:03:46.086Z,97530.34
2022-12-11T17:06:17.041Z,97537.75
2022-12-11T17:08:45.814Z,97548.63
2022-12-11T17:11:16.340Z,97552.31
2022-12-11T17:13:45.713Z,97560.38
2022-12-11T17:16:15.746Z,97572.97
2022-12-11T17:18:45.445Z,97560.50
2022-12-11T17:21:17.895Z,97587.38
2022-12-11T17:23:46.845Z,97573.47
2022-12-11T17:26:15.659Z,97585.19
2022-12-11T17:28:44.095Z,97590.88
2022-12-11T17:31:16.496Z,97595.31
2022-12-11T17:33:51.042Z,97595.97
2022-12-11T17:36:21.531Z,97615.69
2022-12-11T17:38:51.646Z,97622.44
2022-12-11T17:41:21.187Z,97631.63
2022-12-11T17:43:50.051Z,97637.75
2022-12-11T17:46:19.487Z,97658.88
2022-12-11T17:48:49.851Z,97655.13
2022-12-11T17:51:24.198Z,97687.03
2022-12-11T17:53:53.295Z,97708.91
2022-12-11T17:56:21.620Z,97715.56
2022-12-11T17:58:49.921Z,97728.88
2022-12-11T18:01:18.448Z,97741.06
2022-12-11T18:03:47.110Z,97750.09
2022-12-11T18:06:18.981Z,97764.22
2022-12-11T18:08:47.035Z,97776.34
2022-12-11T18:11:17.957Z,97788.59
2022-12-11T18:13:47.376Z,97786.88
2022-12-11T18:16:18.541Z,97795.06
2022-12-11T18:18:48.329Z,97806.06
2022-12-11T18:21:20.779Z,97816.84
2022-12-11T18:23:50.288Z,97810.81
2022-12-11T18:26:20.366Z,97818.25
2022-12-11T18:28:50.418Z,97814.78
2022-12-11T18:31:19.187Z,97821.06
2022-12-11T18:33:48.494Z,97820.28
2022-12-11T18:36:19.502Z,97821.13
2022-12-11T18:38:48.254Z,97827.34
2022-12-11T18:41:18.446Z,97834.00
2022-12-11T18:43:46.746Z,97827.47
2022-12-11T18:46:17.034Z,97836.84
2022-12-11T18:48:46.259Z,97843.03
2022-12-11T18:51:17.200Z,97846.97
2022-12-11T18:53:47.308Z,97859.78
2022-12-11T18:56:17.902Z,97866.75
2022-12-11T18:58:47.574Z,97864.84
2022-12-11T19:01:20.399Z,97865.72
2022-12-11T19:03:49.169Z,97875.78
2022-12-11T19:06:19.619Z,97873.50
2022-12-11T19:08:50.450Z,97877.34
2022-12-11T19:11:19.873Z,97882.41
2022-12-11T19:13:49.239Z,97879.75
2022-12-11T19:16:19.267Z,97874.34
2022-12-11T19:18:48.160Z,97885.19
2022-12-11T19:21:17.985Z,97875.91
2022-12-11T19:23:48.750Z,97882.13
2022-12-11T19:26:20.716Z,97878.25
2022-12-11T19:28:50.614Z,97879.44
2022-12-11T19:31:23.017Z,97882.16
2022-12-11T19:33:51.539Z,97885.28
2022-12-11T19:36:25.072Z,97885.28
2022-12-11T19:39:01.132Z,97893.06
2022-12-11T19:41:30.252Z,97882.22
2022-12-11T19:43:59.924Z,97889.59
2022-12-11T19:46:28.813Z,97895.44
2022-12-11T19:48:58.448Z,97890.78
2022-12-11T19:51:30.075Z,97891.97
2022-12-11T19:54:00.564Z,97890.81
2022-12-11T19:56:28.647Z,97891.97
2022-12-11T19:58:57.055Z,97896.25
2022-12-11T20:01:29.034Z,97887.72
2022-12-11T20:03:59.923Z,97886.19
2022-12-11T20:06:29.301Z,97890.84
2022-12-11T20:08:57.595Z,97899.00
2022-12-11T20:11:27.321Z,97897.41
2022-12-11T20:13:56.769Z,97900.13
2022-12-11T20:16:53.353Z,97898.97
2022-12-11T20:19:13.343Z,97899.38
2022-12-11T20:21:42.276Z,97915.63
2022-12-11T20:24:11.061Z,97904.00
2022-12-11T20:26:40.947Z,97909.78
2022-12-11T20:29:09.486Z,97909.41
2022-12-11T20:31:38.103Z,97915.59
2022-12-11T20:34:09.275Z,97926.81
2022-12-11T20:36:37.539Z,97912.50
2022-12-11T20:39:06.304Z,97922.19
2022-12-11T20:41:34.677Z,97930.31
2022-12-11T20:44:04.558Z,97928.00
2022-12-11T20:46:33.123Z,97930.69
2022-12-11T20:49:01.155Z,97923.72
2022-12-11T20:51:30.021Z,97931.81
2022-12-11T20:53:59.493Z,97937.22
2022-12-11T20:56:29.894Z,97944.19
2022-12-11T20:59:01.291Z,97949.94
2022-12-11T21:01:32.834Z,97952.59
2022-12-11T21:04:01.807Z,97957.53
2022-12-11T21:06:31.914Z,97953.19
2022-12-11T21:09:01.085Z,97965.53
2022-12-11T21:11:29.499Z,97963.91
2022-12-11T21:13:58.230Z,97967.38
2022-12-11T21:16:27.042Z,97964.22
2022-12-11T21:18:59.385Z,97975.72
2022-12-11T21:21:27.963Z,97981.88
2022-12-11T21:23:56.306Z,97984.53
2022-12-11T21:26:24.415Z,97980.97
2022-12-11T21:28:52.681Z,97977.91
2022-12-11T21:31:21.003Z,97974.75
2022-12-11T21:33:49.867Z,97972.00
2022-12-11T21:36:19.558Z,97966.94
2022-12-11T21:38:47.962Z,97963.03
2022-12-11T21:41:18.458Z,97969.88
2022-12-11T21:44:40.947Z,97978.31
2022-12-11T21:46:36.496Z,97987.16
2022-12-11T21:49:04.628Z,97996.41
2022-12-11T21:51:39.463Z,97997.06
2022-12-11T21:54:16.188Z,97996.72
2022-12-11T21:56:44.465Z,98016.25
2022-12-11T21:59:12.676Z,98017.81
2022-12-11T22:01:43.976Z,98032.88
2022-12-11T22:04:13.005Z,98037.84
2022-12-11T22:06:43.682Z,98033.94
2022-12-11T22:09:12.610Z,98034.41
2022-12-11T22:11:42.743Z,98033.63
2022-12-11T22:14:13.819Z,98031.34
2022-12-11T22:16:42.026Z,98013.59
2022-12-11T22:19:10.153Z,98002.78
2022-12-11T22:21:38.519Z,97996.25
2022-12-11T22:24:08.800Z,97983.09
2022-12-11T22:26:37.294Z,97984.94
2022-12-11T22:29:05.368Z,97979.13
2022-12-11T22:31:33.486Z,97985.34
2022-12-11T22:34:01.723Z,97980.72
2022-12-11T22:36:30.208Z,97995.28
2022-12-11T22:38:58.296Z,98005.31
2022-12-11T22:41:29.802Z,97999.47
2022-12-11T22:43:58.727Z,98004.97
2022-12-11T22:46:29.418Z,98001.13
2022-12-11T22:48:58.680Z,97980.38
2022-12-11T22:51:26.851Z,97980.78
2022-12-11T22:53:55.120Z,97982.69
2022-12-11T22:56:23.181Z,97995.06
2022-12-11T22:58:52.710Z,97999.28
2022-12-11T23:01:23.016Z,98012.38
2022-12-11T23:03:51.547Z,98020.88
2022-12-11T23:06:22.855Z,98017.00
2022-12-11T23:08:51.280Z,98016.22
2022-12-11T23:11:22.484Z,98011.19
2022-12-11T23:13:50.570Z,98014.28
2022-12-11T23:16:20.715Z,98014.28
2022-12-11T23:18:51.404Z,98019.28
2022-12-11T23:21:20.164Z,98017.00
2022-12-11T23:23:48.386Z,98025.09
2022-12-11T23:26:18.814Z,98028.88
2022-12-11T23:28:47.743Z,98036.94
2022-12-11T23:31:17.054Z,98036.59
2022-12-11T23:33:47.171Z,98040.78
2022-12-11T23:36:15.184Z,98044.72
2022-12-11T23:38:43.919Z,98046.25
2022-12-11T23:41:15.135Z,98037.34
2022-12-11T23:43:43.857Z,98035.84
2022-12-11T23:46:14.207Z,98040.09
2022-12-11T23:48:43.252Z,98047.09
2022-12-11T23:51:14.808Z,98053.28
2022-12-11T23:53:43.022Z,98059.09
2022-12-11T23:56:14.035Z,98064.91
2022-12-11T23:58:42.547Z,98071.50
